createdAt,value
2022-08-11T00:04:38.516Z,423.64
2022-08-11T00:10:10.058Z,423.82
2022-08-11T00:15:41.992Z,423.64
2022-08-11T00:21:13.826Z,423.30
2022-08-11T00:26:45.661Z,423.47
2022-08-11T00:32:17.291Z,423.64
2022-08-11T00:37:49.231Z,423.64
2022-08-11T00:48:52.899Z,423.82
2022-08-11T00:54:24.695Z,423.64
2022-08-11T00:59:56.240Z,423.82
2022-08-11T01:05:28.046Z,423.99
2022-08-11T01:10:59.872Z,424.34
2022-08-11T01:16:31.761Z,424.51
2022-08-11T01:24:24.215Z,424.94
2022-08-11T01:29:55.483Z,424.94
2022-08-11T01:35:27.251Z,424.94
2022-08-11T01:40:59.215Z,424.68
2022-08-11T01:52:03.259Z,424.68
2022-08-11T01:57:35.178Z,424.68
2022-08-11T02:03:06.867Z,424.86
2022-08-11T02:08:39.025Z,424.86
2022-08-11T02:14:11.109Z,424.94
2022-08-11T02:19:44.203Z,425.12
2022-08-11T02:30:48.803Z,425.29
2022-08-11T02:36:21.021Z,425.81
2022-08-11T02:41:52.779Z,425.98
2022-08-11T02:47:24.541Z,426.16
2022-08-11T02:52:56.672Z,426.33
2022-08-11T02:58:28.823Z,426.33
2022-08-11T03:04:00.483Z,425.98
2022-08-11T03:15:04.127Z,425.81
2022-08-11T03:20:39.210Z,425.81
2022-08-11T03:26:10.745Z,425.98
2022-08-11T03:31:42.397Z,426.51
2022-08-11T03:37:16.528Z,426.33
2022-08-11T03:42:46.449Z,426.16
2022-08-11T03:48:18.317Z,426.16
2022-08-11T03:53:50.157Z,425.98
2022-08-11T03:59:21.932Z,425.98
2022-08-11T04:04:53.613Z,425.98
2022-08-11T04:10:25.601Z,425.98
2022-08-11T04:15:57.650Z,425.98
2022-08-11T04:21:29.603Z,426.16
2022-08-11T04:27:01.897Z,425.98
2022-08-11T04:32:33.148Z,425.81
2022-08-11T04:38:04.790Z,425.81
2022-08-11T04:43:36.541Z,425.81
2022-08-11T04:49:08.232Z,425.64
2022-08-11T04:54:40.283Z,425.64
2022-08-11T05:00:12.024Z,425.64
2022-08-11T05:05:56.572Z,425.64
2022-08-11T05:11:15.597Z,425.46
2022-08-11T05:16:47.230Z,424.94
2022-08-11T05:22:18.988Z,424.86
2022-08-11T05:27:51.112Z,424.34
2022-08-11T05:33:23.051Z,424.68
2022-08-11T05:38:55.114Z,424.51
2022-08-11T05:44:26.861Z,424.51
2022-08-11T05:49:58.451Z,424.51
2022-08-11T05:55:30.498Z,424.68
2022-08-11T06:01:02.332Z,424.86
2022-08-11T06:06:33.824Z,424.86
2022-08-11T06:12:05.582Z,424.86
2022-08-11T06:17:38.936Z,425.12
2022-08-11T06:23:09.497Z,424.94
2022-08-11T06:28:41.479Z,425.29
2022-08-11T06:34:27.154Z,425.12
2022-08-11T06:39:45.360Z,425.12
2022-08-11T06:45:16.980Z,424.86
2022-08-11T06:50:48.830Z,424.86
2022-08-11T06:56:20.617Z,424.94
2022-08-11T07:01:52.450Z,424.86
2022-08-11T07:07:24.249Z,424.34
2022-08-11T07:12:56.081Z,424.51
2022-08-11T07:18:27.911Z,424.16
2022-08-11T07:23:59.642Z,424.68
2022-08-11T07:29:31.724Z,425.12
2022-08-11T07:35:03.300Z,425.29
2022-08-11T07:40:35.198Z,425.81
2022-08-11T07:46:07.022Z,425.81
2022-08-11T07:51:39.046Z,426.16
2022-08-11T07:58:13.803Z,426.51
2022-08-11T08:02:42.369Z,426.68
2022-08-11T08:08:14.193Z,427.20
2022-08-11T08:13:45.990Z,427.37
2022-08-11T08:19:17.862Z,427.20
2022-08-11T08:24:49.661Z,427.55
2022-08-11T08:30:21.554Z,427.55
2022-08-11T08:35:54.720Z,427.37
2022-08-11T08:41:25.045Z,426.68
2022-08-11T08:46:57.201Z,426.85
2022-08-11T08:52:33.224Z,426.85
2022-08-11T08:58:00.986Z,426.51
2022-08-11T09:04:04.958Z,426.85
2022-08-11T09:09:04.755Z,426.68
2022-08-11T09:14:36.420Z,426.33
2022-08-11T09:20:08.216Z,426.51
2022-08-11T09:25:40.162Z,426.85
2022-08-11T09:31:11.548Z,426.51
2022-08-11T09:36:43.452Z,426.51
2022-08-11T09:42:16.659Z,426.33
2022-08-11T09:47:47.086Z,426.33
2022-08-11T09:53:36.255Z,426.16
2022-08-11T09:58:50.653Z,426.68
2022-08-11T10:04:22.504Z,427.03
2022-08-11T10:09:54.443Z,427.89
2022-08-11T10:15:26.224Z,427.72
2022-08-11T10:20:57.847Z,428.59
2022-08-11T10:26:29.565Z,429.37
2022-08-11T10:32:02.030Z,429.37
2022-08-11T10:38:06.240Z,429.37
2022-08-11T10:43:05.113Z,430.06
2022-08-11T10:48:36.929Z,430.41
2022-08-11T10:54:11.476Z,430.76
2022-08-11T10:59:40.547Z,431.45
2022-08-11T11:05:12.466Z,431.80
2022-08-11T11:10:44.163Z,431.97
2022-08-11T11:16:15.978Z,431.97
2022-08-11T11:21:47.831Z,432.15
2022-08-11T11:27:19.727Z,432.32
2022-08-11T11:32:51.851Z,432.32
2022-08-11T11:38:23.521Z,432.84
2022-08-11T11:43:55.609Z,433.19
2022-08-11T11:49:27.776Z,433.53
2022-08-11T11:54:59.538Z,433.36
2022-08-11T12:00:33.189Z,433.80
2022-08-11T12:06:03.077Z,433.80
2022-08-11T12:11:34.771Z,434.14
2022-08-11T12:17:06.909Z,434.49
2022-08-11T12:22:38.477Z,434.84
2022-08-11T12:28:10.606Z,434.84
2022-08-11T12:33:42.665Z,435.53
2022-08-11T12:39:23.110Z,435.71
2022-08-11T12:44:46.332Z,436.23
2022-08-11T12:50:22.976Z,436.40
2022-08-11T12:56:03.697Z,437.09
2022-08-11T13:01:21.521Z,437.62
2022-08-11T13:06:53.556Z,438.05
2022-08-11T13:12:25.075Z,438.40
2022-08-11T13:17:57.047Z,438.22
2022-08-11T13:23:28.828Z,439.09
2022-08-11T13:29:00.969Z,439.96
2022-08-11T13:34:32.539Z,439.96
2022-08-11T13:40:04.256Z,440.31
2022-08-11T13:45:36.125Z,440.66
2022-08-11T13:51:07.894Z,441.00
2022-08-11T13:56:39.950Z,441.18
2022-08-11T14:02:21.776Z,441.35
2022-08-11T14:07:43.419Z,441.87
2022-08-11T14:13:15.138Z,441.52
2022-08-11T14:18:46.893Z,441.87
2022-08-11T14:24:18.689Z,442.39
2022-08-11T14:29:50.451Z,442.74
2022-08-11T14:35:22.448Z,443.09
2022-08-11T14:37:34.716Z,443.09
2022-08-11T14:43:06.058Z,443.09
2022-08-11T14:48:37.659Z,443.09
2022-08-11T14:54:09.495Z,443.18
2022-08-11T14:59:41.485Z,443.09
2022-08-11T15:05:13.202Z,443.18
2022-08-11T15:10:45.043Z,443.35
2022-08-11T15:16:16.607Z,443.52
2022-08-11T15:21:48.495Z,443.52
2022-08-11T15:27:20.349Z,443.35
2022-08-11T15:32:52.101Z,444.04
2022-08-11T15:38:24.045Z,444.04
2022-08-11T15:43:55.751Z,444.22
2022-08-11T15:50:11.666Z,444.57
2022-08-11T16:00:28.378Z,445.26
2022-08-11T16:06:00.397Z,445.26
2022-08-11T16:17:02.077Z,445.96
2022-08-11T16:22:33.895Z,446.13
2022-08-11T16:28:05.467Z,446.13
2022-08-11T16:33:49.611Z,446.30
2022-08-11T16:39:09.213Z,446.30
2022-08-11T16:44:41.105Z,446.30
2022-08-11T16:50:12.662Z,446.48
2022-08-11T16:55:52.511Z,446.83
2022-08-11T17:01:16.596Z,446.83
2022-08-11T17:06:48.332Z,446.48
2022-08-11T17:12:19.817Z,446.48
2022-08-11T17:17:51.728Z,446.30
2022-08-11T17:23:23.182Z,446.48
2022-08-11T17:28:54.898Z,446.48
2022-08-11T17:34:26.896Z,446.65
2022-08-11T17:39:58.342Z,446.83
2022-08-11T17:45:30.199Z,446.83
2022-08-11T17:51:01.930Z,447.00
2022-08-11T17:56:34.038Z,446.48
2022-08-11T18:02:05.897Z,446.48
2022-08-11T18:07:37.545Z,446.30
2022-08-11T18:13:09.247Z,445.96
2022-08-11T18:26:31.147Z,445.26
2022-08-11T18:32:02.972Z,445.26
2022-08-11T18:37:35.017Z,445.09
2022-08-11T18:43:06.704Z,445.09
2022-08-11T18:48:38.138Z,445.09
2022-08-11T18:54:09.771Z,445.09
2022-08-11T18:59:41.621Z,445.09
2022-08-11T19:05:13.448Z,445.09
2022-08-11T19:16:17.270Z,444.57
2022-08-11T19:21:49.493Z,444.22
2022-08-11T19:27:20.920Z,443.87
2022-08-11T19:32:52.848Z,443.70
2022-08-11T19:38:24.827Z,443.52
2022-08-11T19:43:56.439Z,443.18
2022-08-11T19:49:28.369Z,443.09
2022-08-11T19:55:00.142Z,442.74
2022-08-11T20:00:31.927Z,442.22
2022-08-11T20:06:03.951Z,442.39
2022-08-11T20:11:35.622Z,442.22
2022-08-11T20:17:07.338Z,441.87
2022-08-11T20:22:39.480Z,441.70
2022-08-11T20:28:11.021Z,441.70
2022-08-11T20:33:42.681Z,441.52
2022-08-11T20:39:14.754Z,441.00
2022-08-11T20:44:46.433Z,441.00
2022-08-11T20:50:20.393Z,440.48
2022-08-11T20:55:53.615Z,439.61
2022-08-11T21:01:38.330Z,439.44
2022-08-11T21:06:53.981Z,438.22
2022-08-11T21:12:25.528Z,438.22
2022-08-11T21:18:06.394Z,438.05
2022-08-11T21:23:30.798Z,438.05
2022-08-11T21:29:02.534Z,437.79
2022-08-11T21:34:34.104Z,438.05
2022-08-11T21:40:05.897Z,437.88
2022-08-11T21:45:37.738Z,437.88
2022-08-11T21:51:09.761Z,437.88
2022-08-11T21:56:41.294Z,438.22
2022-08-11T22:02:13.425Z,438.22
2022-08-11T22:07:45.284Z,439.44
2022-08-11T22:13:16.516Z,439.27
2022-08-11T22:18:48.119Z,439.61
2022-08-11T22:24:29.771Z,439.96
2022-08-11T22:29:51.863Z,440.13
2022-08-11T22:35:23.465Z,440.48
2022-08-11T22:40:55.137Z,441.00
2022-08-11T22:46:27.026Z,441.18
2022-08-11T22:51:58.696Z,441.00
2022-08-11T22:54:22.757Z,441.00
2022-08-11T22:59:54.805Z,440.83
2022-08-11T23:05:26.497Z,441.35
2022-08-11T23:10:58.174Z,441.35
2022-08-11T23:16:29.913Z,441.18
2022-08-11T23:22:01.883Z,441.52
2022-08-11T23:27:33.397Z,441.52
2022-08-11T23:33:05.351Z,441.18
2022-08-11T23:38:37.086Z,441.52
2022-08-11T23:44:08.813Z,441.52
2022-08-11T23:49:40.663Z,441.70
2022-08-11T23:55:12.541Z,442.05
